Time;durP1;ratioP1;P1;durP2;ratioP2;P2;SDS_P1;SDS_P2;PMS_P1;PMS_P2;Temp;Humidity;BMP_temperature;BMP_pressure;BME280_temperature;BME280_humidity;BME280_pressure;Samples;Min_cycle;Max_cycle;Signal;HPM_P1;HPM_P2
2023/06/03 00:01:11;;;;;;;3.60;2.30;;;24.90;38.60;;;;;;5065219;28;45328;-66
2023/06/03 00:03:39;;;;;;;2.83;2.20;;;24.80;38.50;;;;;;5064744;28;45404;-67
2023/06/03 00:06:06;;;;;;;3.47;1.98;;;24.80;38.60;;;;;;5064809;28;46133;-67
2023/06/03 00:08:33;;;;;;;4.07;2.10;;;24.80;38.60;;;;;;5064617;28;45317;-66
2023/06/03 00:11:01;;;;;;;2.35;2.15;;;24.80;38.70;;;;;;5064867;28;45281;-66
2023/06/03 00:13:28;;;;;;;2.28;2.00;;;24.70;38.60;;;;;;5064918;28;45438;-66
2023/06/03 00:15:55;;;;;;;2.40;2.20;;;24.70;38.70;;;;;;5064519;28;46366;-68
2023/06/03 00:18:23;;;;;;;2.28;1.90;;;24.70;38.70;;;;;;5064527;28;45382;-67
2023/06/03 00:20:50;;;;;;;3.10;1.95;;;24.70;38.70;;;;;;5064593;28;45312;-67
2023/06/03 00:23:17;;;;;;;2.30;2.10;;;24.70;38.70;;;;;;5065017;28;45327;-66
2023/06/03 00:25:43;;;;;;;3.17;2.10;;;24.60;38.70;;;;;;5064327;28;45447;-66
2023/06/03 00:28:12;;;;;;;2.10;1.80;;;24.60;38.80;;;;;;5064280;28;45328;-66
2023/06/03 00:30:38;;;;;;;2.00;1.90;;;24.60;38.70;;;;;;5064501;28;45327;-67
2023/06/03 00:33:06;;;;;;;2.55;2.10;;;24.60;38.80;;;;;;5064688;28;45350;-66
2023/06/03 00:35:33;;;;;;;2.75;2.10;;;24.50;38.70;;;;;;5064347;28;46443;-67
2023/06/03 00:38:00;;;;;;;3.38;2.10;;;24.50;38.80;;;;;;5064451;28;45519;-66
2023/06/03 00:40:27;;;;;;;2.25;2.00;;;24.50;38.80;;;;;;5064533;28;45305;-66
2023/06/03 00:42:54;;;;;;;2.88;1.88;;;24.50;38.80;;;;;;5064331;28;45502;-66
2023/06/03 00:45:22;;;;;;;2.88;1.83;;;24.50;38.80;;;;;;5063622;28;46154;-67
2023/06/03 00:47:49;;;;;;;2.00;1.90;;;24.40;38.80;;;;;;5067329;28;45443;-66
2023/06/03 00:50:16;;;;;;;2.30;2.10;;;24.40;38.90;;;;;;5068001;28;45418;-66
2023/06/03 00:52:43;;;;;;;3.85;1.88;;;24.40;38.90;;;;;;5067873;28;45467;-67
2023/06/03 00:55:10;;;;;;;2.10;1.90;;;24.40;38.90;;;;;;5067341;28;45253;-66
2023/06/03 00:57:37;;;;;;;1.95;1.65;;;24.30;38.90;;;;;;5067420;28;45355;-66
2023/06/03 01:00:05;;;;;;;2.08;1.77;;;24.30;39.00;;;;;;5067473;28;45446;-67
2023/06/03 01:02:36;;;;;;;2.13;1.80;;;24.30;38.90;;;;;;5067483;28;45404;-66
2023/06/03 01:05:04;;;;;;;2.55;2.05;;;24.30;39.00;;;;;;5067263;28;46578;-66
2023/06/03 01:07:37;;;;;;;2.42;1.90;;;24.30;39.00;;;;;;5066986;28;45360;-66
2023/06/03 01:10:09;;;;;;;2.95;1.90;;;24.20;39.00;;;;;;5067550;28;45393;-66
2023/06/03 01:12:40;;;;;;;2.22;2.03;;;24.20;39.00;;;;;;5067780;28;45416;-66
2023/06/03 01:15:08;;;;;;;2.58;1.77;;;24.20;39.00;;;;;;5067162;28;46385;-66
2023/06/03 01:17:39;;;;;;;2.20;1.98;;;24.20;39.10;;;;;;5067151;28;45310;-66
2023/06/03 01:20:09;;;;;;;2.00;1.70;;;24.20;39.10;;;;;;5067138;28;45427;-67
2023/06/03 01:22:40;;;;;;;2.05;1.90;;;24.20;39.10;;;;;;5067368;28;45304;-67
2023/06/03 01:25:09;;;;;;;2.47;2.00;;;24.20;39.10;;;;;;5067082;28;47310;-66
2023/06/03 01:27:37;;;;;;;2.15;1.98;;;24.10;39.20;;;;;;5066768;28;45352;-67
2023/06/03 01:30:05;;;;;;;2.20;1.80;;;24.10;39.20;;;;;;5067182;28;45365;-69
2023/06/03 01:32:32;;;;;;;3.28;2.10;;;24.10;39.20;;;;;;5067098;28;45412;-68
2023/06/03 01:34:59;;;;;;;3.20;2.05;;;24.10;39.20;;;;;;5066798;28;45288;-67
2023/06/03 01:37:27;;;;;;;2.35;1.80;;;24.10;39.20;;;;;;5066981;28;45464;-67
2023/06/03 01:39:54;;;;;;;2.40;2.20;;;24.00;39.30;;;;;;5067261;28;45312;-67
2023/06/03 01:42:22;;;;;;;2.90;2.13;;;24.00;39.80;;;;;;5067227;28;45520;-67
2023/06/03 01:44:49;;;;;;;3.78;2.00;;;24.00;39.20;;;;;;5066586;28;46362;-67
2023/06/03 01:47:16;;;;;;;2.13;1.92;;;24.00;39.30;;;;;;5066624;28;45295;-68
2023/06/03 01:49:43;;;;;;;2.28;1.90;;;23.90;39.20;;;;;;5066793;28;45303;-67
2023/06/03 01:52:10;;;;;;;2.38;2.17;;;23.90;39.30;;;;;;5067000;28;45435;-68
2023/06/03 01:54:36;;;;;;;2.85;1.98;;;23.90;39.40;;;;;;5066411;28;45616;-67
2023/06/03 01:57:04;;;;;;;3.50;2.00;;;23.90;39.40;;;;;;5065405;28;45330;-67
2023/06/03 01:59:32;;;;;;;2.10;1.90;;;23.90;39.40;;;;;;5066551;28;45237;-67
2023/06/03 02:01:59;;;;;;;2.20;2.00;;;23.80;39.30;;;;;;5066492;28;45312;-67
2023/06/03 02:04:26;;;;;;;5.10;2.00;;;23.80;39.40;;;;;;5066156;28;47922;-67
2023/06/03 02:06:55;;;;;;;1.92;1.70;;;23.80;39.40;;;;;;5066251;28;45318;-67
2023/06/03 02:09:24;;;;;;;2.17;2.00;;;23.80;39.40;;;;;;5066396;28;45324;-68
2023/06/03 02:11:53;;;;;;;1.92;1.80;;;23.80;39.60;;;;;;5066421;28;45347;-68
2023/06/03 02:14:20;;;;;;;2.17;2.00;;;23.80;39.60;;;;;;5066299;28;46387;-67
2023/06/03 02:16:49;;;;;;;4.82;2.35;;;23.70;39.50;;;;;;5066047;28;45272;-67
2023/06/03 02:19:17;;;;;;;2.75;2.35;;;23.70;39.50;;;;;;5066552;28;45404;-67
2023/06/03 02:21:44;;;;;;;2.50;2.20;;;23.70;39.50;;;;;;5066602;28;45489;-65
2023/06/03 02:24:14;;;;;;;3.10;2.10;;;23.70;39.50;;;;;;5065959;28;45289;-68
2023/06/03 02:26:49;;;;;;;1.95;1.75;;;23.60;39.50;;;;;;5066202;28;45410;-67
2023/06/03 02:29:18;;;;;;;3.03;1.80;;;23.60;39.60;;;;;;5065989;28;45397;-68
2023/06/03 02:31:45;;;;;;;2.15;1.85;;;23.60;39.60;;;;;;5063429;28;45364;-67
2023/06/03 02:34:13;;;;;;;2.17;1.98;;;23.60;39.70;;;;;;5066029;28;46441;-67
2023/06/03 02:36:40;;;;;;;2.63;1.92;;;23.60;39.60;;;;;;5065889;28;45334;-67
2023/06/03 02:39:09;;;;;;;2.08;1.83;;;23.60;39.80;;;;;;5065947;28;45307;-67
2023/06/03 02:41:36;;;;;;;2.42;1.90;;;23.50;39.70;;;;;;5066298;28;45653;-67
2023/06/03 02:44:03;;;;;;;3.75;2.08;;;23.50;39.80;;;;;;5065445;28;46374;-67
2023/06/03 02:46:29;;;;;;;1.85;1.75;;;23.50;40.20;;;;;;5065597;28;45439;-67
2023/06/03 02:48:56;;;;;;;2.10;2.00;;;23.50;40.40;;;;;;5065739;28;45322;-67
2023/06/03 02:51:25;;;;;;;2.08;1.75;;;23.50;39.80;;;;;;5065858;28;45488;-67
2023/06/03 02:53:52;;;;;;;2.00;1.80;;;23.40;39.80;;;;;;5065501;28;46743;-67
2023/06/03 02:56:19;;;;;;;2.15;1.95;;;23.40;39.80;;;;;;5065347;28;45281;-67
2023/06/03 02:58:45;;;;;;;2.70;1.88;;;23.40;39.90;;;;;;5065607;28;45344;-67
2023/06/03 03:01:12;;;;;;;2.08;1.88;;;23.40;40.00;;;;;;5065834;28;45261;-67
2023/06/03 03:03:40;;;;;;;2.35;1.80;;;23.30;39.90;;;;;;5065040;28;47296;-67
2023/06/03 03:06:08;;;;;;;1.98;1.75;;;23.30;39.90;;;;;;5065251;28;45310;-67
2023/06/03 03:08:37;;;;;;;2.92;1.98;;;23.30;39.90;;;;;;5065210;28;45359;-68
2023/06/03 03:11:05;;;;;;;1.88;1.77;;;23.30;39.90;;;;;;5065753;28;45377;-67
2023/06/03 03:13:32;;;;;;;2.10;1.88;;;23.30;39.90;;;;;;5065126;28;46454;-67
2023/06/03 03:15:59;;;;;;;2.00;1.90;;;23.30;40.00;;;;;;5065163;28;45324;-68
2023/06/03 03:18:26;;;;;;;1.95;1.60;;;23.30;40.00;;;;;;5065425;28;45376;-67
2023/06/03 03:20:53;;;;;;;2.85;1.95;;;23.20;39.90;;;;;;5065466;28;45433;-68
2023/06/03 03:23:20;;;;;;;2.30;1.80;;;23.20;40.60;;;;;;5065153;28;46946;-67
2023/06/03 03:25:48;;;;;;;2.97;1.70;;;23.20;40.00;;;;;;5065133;28;45330;-67
2023/06/03 03:28:15;;;;;;;2.50;2.30;;;23.20;40.00;;;;;;5065264;28;45538;-67
2023/06/03 03:30:42;;;;;;;2.10;1.83;;;23.10;40.00;;;;;;5065369;28;45429;-67
2023/06/03 03:33:09;;;;;;;2.05;1.77;;;23.10;40.10;;;;;;5064656;28;46280;-67
2023/06/03 03:35:39;;;;;;;1.92;1.67;;;23.10;40.00;;;;;;5065131;28;45261;-69
2023/06/03 03:38:07;;;;;;;2.45;1.77;;;23.10;40.10;;;;;;5065112;28;45408;-67
2023/06/03 03:40:36;;;;;;;4.30;1.95;;;23.10;40.10;;;;;;5065174;28;45382;-67
2023/06/03 03:43:04;;;;;;;2.95;1.90;;;23.00;40.10;;;;;;5064772;28;46385;-67
2023/06/03 03:45:34;;;;;;;2.20;2.00;;;23.00;40.10;;;;;;5064735;28;45334;-67
2023/06/03 03:48:02;;;;;;;1.90;1.80;;;23.00;40.10;;;;;;5064788;28;45339;-67
2023/06/03 03:50:41;;;;;;;1.60;1.50;;;23.00;40.10;;;;;;5065151;28;45557;-67
2023/06/03 03:53:09;;;;;;;2.63;1.80;;;23.00;40.20;;;;;;5064587;28;46349;-67
2023/06/03 03:55:39;;;;;;;2.17;2.00;;;22.90;40.20;;;;;;5064713;28;45271;-69
2023/06/03 03:58:14;;;;;;;2.58;1.88;;;22.90;40.20;;;;;;5064761;28;45320;-68
2023/06/03 04:00:43;;;;;;;2.00;1.80;;;22.90;40.20;;;;;;5064917;28;45309;-67
2023/06/03 04:03:10;;;;;;;1.73;1.63;;;22.90;40.20;;;;;;5064402;28;46489;-68
2023/06/03 04:05:37;;;;;;;2.72;1.83;;;22.90;40.20;;;;;;5064553;28;45342;-68
2023/06/03 04:08:04;;;;;;;1.77;1.67;;;22.90;40.20;;;;;;5064907;27;45474;-67
2023/06/03 04:10:31;;;;;;;1.90;1.80;;;22.90;40.20;;;;;;5064861;28;45399;-68
2023/06/03 04:12:58;;;;;;;2.17;1.95;;;22.80;40.20;;;;;;5064671;28;47352;-67
2023/06/03 04:15:30;;;;;;;3.85;1.83;;;22.80;40.30;;;;;;5064510;28;45376;-67
2023/06/03 04:17:57;;;;;;;1.80;1.70;;;22.80;40.30;;;;;;5064829;28;45360;-67
2023/06/03 04:20:37;;;;;;;2.17;1.90;;;22.80;40.30;;;;;;5067151;28;45600;-67
2023/06/03 04:23:05;;;;;;;1.88;1.70;;;22.80;40.30;;;;;;5067819;28;45647;-67
2023/06/03 04:25:32;;;;;;;2.53;2.10;;;22.70;40.30;;;;;;5067913;28;45323;-67
2023/06/03 04:27:58;;;;;;;2.08;1.88;;;22.70;40.30;;;;;;5068114;28;45362;-67
2023/06/03 04:30:25;;;;;;;2.08;1.92;;;22.70;40.30;;;;;;5065456;28;45304;-67
2023/06/03 04:32:53;;;;;;;2.75;1.90;;;22.70;40.30;;;;;;5067656;28;46684;-67
2023/06/03 04:35:20;;;;;;;4.32;2.13;;;22.70;40.30;;;;;;5067636;28;45377;-67
2023/06/03 04:37:47;;;;;;;2.30;2.10;;;22.70;40.30;;;;;;5067703;28;45447;-68
2023/06/03 04:40:14;;;;;;;2.03;1.85;;;22.70;40.30;;;;;;5067912;28;45619;-68
2023/06/03 04:42:41;;;;;;;1.70;1.60;;;22.70;40.30;;;;;;5067627;28;47429;-67
2023/06/03 04:45:09;;;;;;;2.42;2.22;;;22.70;40.30;;;;;;5067647;28;45348;-67
2023/06/03 04:47:41;;;;;;;1.70;1.60;;;22.70;40.40;;;;;;5067672;28;45437;-67
2023/06/03 04:50:10;;;;;;;2.17;1.80;;;22.70;40.30;;;;;;5067593;28;45273;-67
2023/06/03 04:52:37;;;;;;;3.00;2.20;;;22.60;40.20;;;;;;5067363;28;46753;-68
2023/06/03 04:55:04;;;;;;;2.75;1.50;;;22.70;40.30;;;;;;5067419;28;45337;-67
2023/06/03 04:57:31;;;;;;;2.00;1.90;;;22.60;40.20;;;;;;5067417;28;45313;-68
2023/06/03 04:59:58;;;;;;;2.25;2.05;;;22.60;40.20;;;;;;5067640;28;45577;-67
2023/06/03 05:02:29;;;;;;;2.13;2.00;;;22.60;40.30;;;;;;5066921;28;46545;-67
2023/06/03 05:04:56;;;;;;;2.35;1.80;;;22.60;40.20;;;;;;5067262;28;45313;-68
2023/06/03 05:07:26;;;;;;;4.53;1.80;;;22.60;40.20;;;;;;5067156;28;45348;-67
2023/06/03 05:09:53;;;;;;;2.47;2.28;;;22.60;40.30;;;;;;5067294;28;45455;-67
2023/06/03 05:12:20;;;;;;;3.05;2.00;;;22.60;40.20;;;;;;5067042;28;46387;-68
2023/06/03 05:14:47;;;;;;;2.78;1.77;;;22.60;40.30;;;;;;5067126;28;45246;-67
2023/06/03 05:17:14;;;;;;;3.22;1.90;;;22.60;40.20;;;;;;5066922;28;45291;-67
2023/06/03 05:19:41;;;;;;;1.73;1.63;;;22.60;40.30;;;;;;5067455;28;45603;-67
2023/06/03 05:22:08;;;;;;;2.10;1.88;;;22.60;40.30;;;;;;5066921;28;46518;-67
2023/06/03 05:24:36;;;;;;;2.17;2.00;;;22.60;40.30;;;;;;5066782;28;45325;-67
2023/06/03 05:27:03;;;;;;;3.63;2.30;;;22.60;40.30;;;;;;5066815;28;45347;-67
2023/06/03 05:29:30;;;;;;;2.28;2.00;;;22.60;40.30;;;;;;5067145;28;45526;-67
2023/06/03 05:31:57;;;;;;;2.03;1.88;;;22.60;40.30;;;;;;5065266;28;45603;-67
2023/06/03 05:34:24;;;;;;;2.50;1.90;;;22.60;40.30;;;;;;5066609;28;45430;-67
2023/06/03 05:36:51;;;;;;;2.38;2.17;;;22.50;40.30;;;;;;5066660;28;45261;-67
2023/06/03 05:39:18;;;;;;;2.28;1.90;;;22.50;40.30;;;;;;5066866;28;45315;-68
2023/06/03 05:41:46;;;;;;;2.65;2.22;;;22.50;40.40;;;;;;5066715;28;46423;-69
2023/06/03 05:44:13;;;;;;;2.90;2.00;;;22.50;40.40;;;;;;5066434;28;45419;-69
2023/06/03 05:46:40;;;;;;;2.33;1.80;;;22.50;40.30;;;;;;5066717;28;45505;-69
2023/06/03 05:49:06;;;;;;;1.63;1.52;;;22.50;40.40;;;;;;5066704;28;45531;-68
2023/06/03 05:51:33;;;;;;;1.92;1.80;;;22.50;40.40;;;;;;5066202;28;47368;-67
2023/06/03 05:54:00;;;;;;;2.38;1.83;;;22.50;40.40;;;;;;5066271;28;45557;-67
2023/06/03 05:56:27;;;;;;;1.95;1.73;;;22.50;40.40;;;;;;5066490;28;45394;-67
2023/06/03 05:58:57;;;;;;;2.67;2.15;;;22.50;40.50;;;;;;5066576;28;45376;-68
2023/06/03 06:01:24;;;;;;;1.88;1.70;;;22.50;40.50;;;;;;5066142;28;46622;-68
2023/06/03 06:03:51;;;;;;;2.05;1.85;;;22.50;40.50;;;;;;5065964;28;45364;-68
2023/06/03 06:06:18;;;;;;;1.92;1.80;;;22.50;40.40;;;;;;5066172;28;45478;-69
2023/06/03 06:08:45;;;;;;;3.03;2.10;;;22.50;40.50;;;;;;5066365;28;45360;-68
2023/06/03 06:11:13;;;;;;;2.25;2.05;;;22.50;40.50;;;;;;5065849;28;45260;-66
2023/06/03 06:13:40;;;;;;;1.88;1.73;;;22.50;40.50;;;;;;5066007;28;45391;-68
2023/06/03 06:16:09;;;;;;;3.10;2.13;;;22.50;40.50;;;;;;5066123;28;45348;-69
2023/06/03 06:18:36;;;;;;;2.05;1.70;;;22.50;40.60;;;;;;5066270;28;45551;-68
2023/06/03 06:21:03;;;;;;;3.35;1.98;;;22.50;40.50;;;;;;5065933;28;46373;-67
2023/06/03 06:23:30;;;;;;;4.07;1.92;;;22.60;40.60;;;;;;5065933;28;45332;-67
2023/06/03 06:25:57;;;;;;;2.00;1.90;;;22.60;40.60;;;;;;5065810;28;45394;-67
2023/06/03 06:28:26;;;;;;;1.85;1.75;;;22.60;40.60;;;;;;5066130;28;45380;-67
2023/06/03 06:30:53;;;;;;;1.95;1.80;;;22.60;40.60;;;;;;5065666;28;47110;-67
2023/06/03 06:33:21;;;;;;;1.98;1.88;;;22.60;40.60;;;;;;5065564;28;45273;-66
2023/06/03 06:35:48;;;;;;;3.15;2.25;;;22.60;40.60;;;;;;5065712;28;45411;-67
2023/06/03 06:38:18;;;;;;;1.98;1.83;;;22.60;40.60;;;;;;5065678;28;45514;-67
2023/06/03 06:40:45;;;;;;;2.28;2.08;;;22.60;40.60;;;;;;5065567;28;46319;-67
2023/06/03 06:43:13;;;;;;;1.95;1.70;;;22.60;40.60;;;;;;5065153;28;45409;-66
2023/06/03 06:45:40;;;;;;;2.10;1.90;;;22.60;40.60;;;;;;5065690;28;45287;-67
2023/06/03 06:48:08;;;;;;;2.00;1.80;;;22.60;40.60;;;;;;5065826;28;45323;-67
2023/06/03 06:50:46;;;;;;;1.90;1.70;;;22.60;41.20;;;;;;5065299;28;45252;-66
2023/06/03 06:53:13;;;;;;;2.50;2.00;;;22.70;40.60;;;;;;5065428;28;45288;-67
2023/06/03 06:55:44;;;;;;;2.03;1.90;;;22.70;40.60;;;;;;5065618;28;45334;-67
2023/06/03 06:58:11;;;;;;;2.15;1.95;;;22.70;40.60;;;;;;5065527;28;45489;-67
2023/06/03 07:00:38;;;;;;;2.10;1.90;;;22.70;40.60;;;;;;5065226;28;46416;-67
2023/06/03 07:03:07;;;;;;;3.00;1.95;;;22.70;40.60;;;;;;5064916;28;45273;-67
2023/06/03 07:05:34;;;;;;;2.20;2.00;;;22.70;40.60;;;;;;5065348;28;45330;-67
2023/06/03 07:08:02;;;;;;;2.42;2.00;;;22.70;40.60;;;;;;5065347;28;45492;-67
2023/06/03 07:10:29;;;;;;;2.20;2.00;;;22.70;40.60;;;;;;5065085;28;46484;-67
2023/06/03 07:12:56;;;;;;;2.22;2.00;;;22.80;40.70;;;;;;5065114;28;45305;-67
2023/06/03 07:15:23;;;;;;;2.05;1.95;;;22.80;40.60;;;;;;5065155;28;45303;-67
2023/06/03 07:17:50;;;;;;;2.05;1.95;;;22.80;40.60;;;;;;5065246;28;45316;-67
2023/06/03 07:20:20;;;;;;;1.90;1.80;;;22.80;40.60;;;;;;5064906;28;45372;-67
2023/06/03 07:22:47;;;;;;;2.15;1.95;;;22.80;40.60;;;;;;5065006;28;45253;-67
2023/06/03 07:25:18;;;;;;;2.42;2.22;;;22.80;40.60;;;;;;5065200;28;45234;-67
2023/06/03 07:27:47;;;;;;;2.72;2.00;;;22.90;40.70;;;;;;5065128;28;45352;-68
2023/06/03 07:30:16;;;;;;;2.47;2.10;;;22.90;40.70;;;;;;5064753;28;45374;-67
2023/06/03 07:32:43;;;;;;;2.92;1.90;;;22.90;40.70;;;;;;5064723;28;45374;-67
2023/06/03 07:35:10;;;;;;;2.63;1.88;;;22.90;40.70;;;;;;5065037;28;45343;-67
2023/06/03 07:37:37;;;;;;;2.15;1.90;;;22.90;40.70;;;;;;5064969;28;45316;-68
2023/06/03 07:40:04;;;;;;;2.00;1.80;;;22.90;40.70;;;;;;5064696;28;46399;-66
2023/06/03 07:42:33;;;;;;;3.78;1.85;;;22.90;40.70;;;;;;5064578;28;45411;-66
2023/06/03 07:44:59;;;;;;;2.00;1.85;;;22.90;40.70;;;;;;5064865;28;45375;-66
2023/06/03 07:47:26;;;;;;;2.25;1.90;;;23.00;40.70;;;;;;5064918;28;45423;-67
2023/06/03 07:49:53;;;;;;;2.05;1.95;;;23.00;40.70;;;;;;5064373;28;46207;-66
2023/06/03 07:52:21;;;;;;;2.28;2.08;;;22.90;40.70;;;;;;5064557;28;45335;-67
2023/06/03 07:54:48;;;;;;;2.40;1.77;;;23.00;40.60;;;;;;5066185;28;45378;-67
2023/06/03 07:57:15;;;;;;;3.50;2.08;;;23.00;40.70;;;;;;5068253;28;45502;-66
2023/06/03 07:59:46;;;;;;;3.00;2.15;;;23.00;40.70;;;;;;5067998;28;46764;-67
2023/06/03 08:02:12;;;;;;;2.58;2.00;;;23.00;40.60;;;;;;5068009;28;45576;-67
2023/06/03 08:04:39;;;;;;;3.38;2.30;;;23.00;40.70;;;;;;5068266;28;45459;-66
2023/06/03 08:07:06;;;;;;;2.05;1.95;;;23.00;40.70;;;;;;5068265;28;45558;-67
2023/06/03 08:09:34;;;;;;;3.40;2.05;;;23.10;40.70;;;;;;5067972;28;45941;-68
2023/06/03 08:12:04;;;;;;;2.20;1.88;;;23.10;40.70;;;;;;5068047;28;45461;-67
2023/06/03 08:14:31;;;;;;;2.28;1.92;;;23.10;40.60;;;;;;5068131;28;45338;-67
2023/06/03 08:17:03;;;;;;;2.08;1.92;;;23.10;40.60;;;;;;5068124;28;45307;-67
2023/06/03 08:19:30;;;;;;;2.88;2.17;;;23.10;40.60;;;;;;5067870;28;46408;-67
2023/06/03 08:21:57;;;;;;;2.35;2.13;;;23.10;40.60;;;;;;5067823;28;45331;-67
2023/06/03 08:24:24;;;;;;;2.92;1.90;;;23.20;40.70;;;;;;5067894;28;45343;-66
2023/06/03 08:26:51;;;;;;;2.85;1.83;;;23.20;40.70;;;;;;5068000;28;45318;-66
2023/06/03 08:29:18;;;;;;;3.05;2.03;;;23.20;40.70;;;;;;5067466;28;47310;-65
2023/06/03 08:31:45;;;;;;;2.80;2.25;;;23.20;40.70;;;;;;5067578;28;45359;-66
2023/06/03 08:34:13;;;;;;;2.58;2.00;;;23.30;40.40;;;;;;5067282;28;45307;-67
2023/06/03 08:36:40;;;;;;;3.92;2.20;;;23.30;40.60;;;;;;5067982;28;45404;-64
2023/06/03 08:39:08;;;;;;;2.90;2.25;;;23.30;40.80;;;;;;5064959;28;45396;-65
2023/06/03 08:41:37;;;;;;;3.03;2.70;;;23.30;40.70;;;;;;5067614;28;45309;-64
2023/06/03 08:44:08;;;;;;;5.18;2.83;;;23.30;40.80;;;;;;5067534;28;45381;-65
2023/06/03 08:46:40;;;;;;;5.05;2.35;;;23.30;41.00;;;;;;5067818;28;45304;-66
2023/06/03 08:49:08;;;;;;;4.70;2.95;;;23.40;41.30;;;;;;5067590;28;45561;-65
2023/06/03 08:51:38;;;;;;;4.78;2.53;;;23.40;41.10;;;;;;5067381;28;45390;-65
2023/06/03 08:54:11;;;;;;;2.92;2.10;;;23.40;41.10;;;;;;5067489;28;45314;-64
2023/06/03 08:56:39;;;;;;;3.25;2.55;;;23.40;41.10;;;;;;5068054;28;45406;-65
2023/06/03 08:59:06;;;;;;;4.55;2.92;;;23.50;40.80;;;;;;5067146;28;46288;-67
2023/06/03 09:01:35;;;;;;;9.15;2.90;;;23.50;41.60;;;;;;5067218;28;45603;-67
2023/06/03 09:04:02;;;;;;;3.72;2.85;;;23.50;41.30;;;;;;5067186;28;45390;-67
2023/06/03 09:06:29;;;;;;;3.58;2.70;;;23.50;41.50;;;;;;5067106;28;45376;-67
2023/06/03 09:08:57;;;;;;;3.33;2.22;;;23.60;41.70;;;;;;5067215;28;46413;-68
2023/06/03 09:11:25;;;;;;;5.10;2.45;;;23.60;41.80;;;;;;5064652;28;45405;-67
2023/06/03 09:13:52;;;;;;;2.40;2.20;;;23.60;41.50;;;;;;5067161;28;45399;-67
2023/06/03 09:16:19;;;;;;;3.33;2.50;;;23.60;41.70;;;;;;5067375;28;45329;-68
2023/06/03 09:18:48;;;;;;;2.95;2.33;;;23.70;42.10;;;;;;5067140;28;46556;-66
2023/06/03 09:21:15;;;;;;;2.65;2.45;;;23.70;42.80;;;;;;5067085;28;45336;-67
2023/06/03 09:23:42;;;;;;;2.78;2.20;;;23.80;42.90;;;;;;5067294;28;45336;-68
2023/06/03 09:26:10;;;;;;;4.68;2.63;;;23.80;42.80;;;;;;5067249;28;45284;-68
2023/06/03 09:28:37;;;;;;;2.88;2.38;;;23.80;42.50;;;;;;5066554;28;45416;-69
2023/06/03 09:31:05;;;;;;;4.82;2.28;;;23.90;42.60;;;;;;5066816;28;45381;-68
2023/06/03 09:33:32;;;;;;;4.50;2.35;;;23.90;43.10;;;;;;5067012;28;45316;-68
2023/06/03 09:36:09;;;;;;;3.42;2.53;;;24.00;44.00;;;;;;5067085;28;45312;-68
2023/06/03 09:38:52;;;;;;;3.58;2.42;;;24.00;43.40;;;;;;5066555;28;46555;-68
2023/06/03 09:41:20;;;;;;;3.45;2.50;;;24.00;43.70;;;;;;5066960;28;45390;-68
2023/06/03 09:43:55;;;;;;;3.17;2.63;;;24.10;43.80;;;;;;5066844;28;45387;-68
2023/06/03 09:46:22;;;;;;;3.72;2.30;;;24.10;43.60;;;;;;5067343;28;45459;-68
2023/06/03 09:48:48;;;;;;;5.50;3.17;;;24.20;43.90;;;;;;5066653;28;46658;-69
2023/06/03 09:51:15;;;;;;;4.80;3.30;;;24.20;43.00;;;;;;5066311;28;45337;-68
2023/06/03 09:53:42;;;;;;;3.65;2.80;;;24.20;43.60;;;;;;5066870;28;45312;-68
2023/06/03 09:56:28;;;;;;;5.88;2.40;;;24.20;43.90;;;;;;5067002;28;45367;-69
2023/06/03 09:59:14;;;;;;;7.85;2.60;;;24.20;44.10;;;;;;5066319;28;45269;-66
2023/06/03 10:01:41;;;;;;;2.95;2.20;;;24.30;44.60;;;;;;5066457;28;45285;-67
2023/06/03 10:04:08;;;;;;;5.75;3.42;;;24.40;44.60;;;;;;5026638;28;45350;-67
2023/06/03 10:06:36;;;;;;;3.38;2.65;;;24.40;44.30;;;;;;5026433;28;45360;-67
2023/06/03 10:09:20;;;;;;;2.95;2.30;;;24.50;44.50;;;;;;5026153;28;45328;-68
2023/06/03 10:11:48;;;;;;;4.10;2.28;;;24.50;44.50;;;;;;5026247;28;45405;-69
2023/06/03 10:14:17;;;;;;;3.78;2.45;;;24.50;44.50;;;;;;5026304;28;45207;-70
2023/06/03 10:17:01;;;;;;;5.85;2.75;;;24.60;44.60;;;;;;5025602;28;45567;-69
2023/06/03 10:19:28;;;;;;;7.47;3.05;;;24.60;44.60;;;;;;5026041;28;46382;-67
2023/06/03 10:21:56;;;;;;;6.57;3.80;;;24.70;43.70;;;;;;5026090;28;45452;-68
2023/06/03 10:24:23;;;;;;;7.60;4.18;;;24.60;43.90;;;;;;5026179;28;45409;-68
2023/06/03 10:26:51;;;;;;;5.05;3.72;;;24.50;44.10;;;;;;5026250;28;45246;-68
2023/06/03 10:29:18;;;;;;;5.97;3.72;;;24.40;44.40;;;;;;5023120;28;45556;-68
2023/06/03 10:31:45;;;;;;;6.72;4.03;;;24.40;44.70;;;;;;5025645;28;45250;-67
2023/06/03 10:34:18;;;;;;;5.25;4.28;;;24.40;44.80;;;;;;5026084;28;45375;-67
2023/06/03 10:36:45;;;;;;;9.25;4.10;;;24.30;44.80;;;;;;5026069;28;45270;-67
2023/06/03 10:39:12;;;;;;;4.95;4.13;;;24.40;44.60;;;;;;5025552;28;46562;-66
2023/06/03 10:41:39;;;;;;;8.60;4.10;;;24.40;44.40;;;;;;5025643;28;45376;-67
2023/06/03 10:44:07;;;;;;;6.68;3.90;;;24.40;44.40;;;;;;5025793;28;45322;-67
2023/06/03 10:46:35;;;;;;;4.63;3.90;;;24.40;44.50;;;;;;5025810;28;45407;-66
2023/06/03 10:49:02;;;;;;;6.55;4.20;;;24.40;44.90;;;;;;5025444;28;45377;-67
2023/06/03 10:51:37;;;;;;;7.70;3.92;;;24.40;44.90;;;;;;5025398;28;45429;-67
2023/06/03 10:54:14;;;;;;;5.38;3.67;;;24.40;44.90;;;;;;5025718;28;45261;-66
2023/06/03 10:56:43;;;;;;;7.00;4.03;;;24.40;45.00;;;;;;5025810;28;45321;-67
2023/06/03 10:59:13;;;;;;;7.28;3.63;;;24.40;45.00;;;;;;5025632;28;45743;-66
2023/06/03 11:02:00;;;;;;;5.38;3.60;;;24.40;45.00;;;;;;5025385;28;45266;-66
2023/06/03 11:04:27;;;;;;;6.63;3.60;;;24.50;44.90;;;;;;5065821;28;45257;-66
2023/06/03 11:06:55;;;;;;;6.28;3.78;;;24.60;44.70;;;;;;5065869;28;45447;-67
2023/06/03 11:09:34;;;;;;;5.70;3.65;;;24.70;45.00;;;;;;5065345;28;45447;-68
2023/06/03 11:12:05;;;;;;;8.88;4.15;;;24.80;44.90;;;;;;5065528;28;45155;-67
2023/06/03 11:14:55;;;;;;;7.75;4.18;;;24.80;44.80;;;;;;5065529;28;45312;-66
2023/06/03 11:17:25;;;;;;;7.45;4.10;;;24.80;44.60;;;;;;5063732;28;45298;-67
2023/06/03 11:19:54;;;;;;;5.85;3.55;;;24.80;44.80;;;;;;5065434;28;46261;-66
2023/06/03 11:22:40;;;;;;;6.80;4.03;;;24.90;44.80;;;;;;5065313;28;45307;-67
2023/06/03 11:25:08;;;;;;;6.43;3.65;;;25.00;44.60;;;;;;5065558;28;45256;-66
2023/06/03 11:27:35;;;;;;;6.03;3.72;;;25.10;44.80;;;;;;5065455;28;45482;-67
2023/06/03 11:30:06;;;;;;;9.30;3.83;;;25.10;44.50;;;;;;5064987;28;46523;-66
2023/06/03 11:32:34;;;;;;;8.75;3.67;;;25.20;44.40;;;;;;5065165;28;45309;-66
2023/06/03 11:35:29;;;;;;;4.85;4.30;;;25.20;44.20;;;;;;5065279;28;45371;-65
2023/06/03 11:37:56;;;;;;;5.78;3.38;;;25.30;44.30;;;;;;5065290;28;45305;-65
2023/06/03 11:40:24;;;;;;;24.17;6.25;;;25.30;44.30;;;;;;5064980;28;45417;-66
2023/06/03 11:43:07;;;;;;;12.68;5.15;;;25.30;44.10;;;;;;5064940;28;45265;-66
2023/06/03 11:45:37;;;;;;;7.50;4.15;;;25.30;44.00;;;;;;5065264;28;45170;-65
2023/06/03 11:48:05;;;;;;;6.47;4.00;;;25.40;44.10;;;;;;5065478;28;45356;-67
2023/06/03 11:50:33;;;;;;;5.38;3.63;;;25.40;44.20;;;;;;5064896;28;46685;-66
2023/06/03 11:53:00;;;;;;;7.43;4.05;;;25.50;44.10;;;;;;5064826;28;45281;-66
2023/06/03 11:55:28;;;;;;;8.63;4.00;;;25.50;44.00;;;;;;5065061;28;45264;-66
2023/06/03 11:57:56;;;;;;;7.38;3.70;;;25.60;44.00;;;;;;5065157;28;45402;-65
2023/06/03 12:00:23;;;;;;;6.82;3.85;;;25.70;43.60;;;;;;5064864;28;45352;-65
2023/06/03 12:02:53;;;;;;;6.75;3.85;;;25.80;43.60;;;;;;5064509;28;45321;-66
2023/06/03 12:05:20;;;;;;;8.55;4.10;;;25.80;43.40;;;;;;5065033;28;45229;-67
2023/06/03 12:07:54;;;;;;;6.90;3.60;;;25.90;43.30;;;;;;5064992;28;45356;-65
2023/06/03 12:10:21;;;;;;;6.85;3.72;;;25.90;43.30;;;;;;5064555;28;46698;-67
2023/06/03 12:12:51;;;;;;;6.88;3.92;;;26.00;43.20;;;;;;5064496;28;45301;-65
2023/06/03 12:15:18;;;;;;;6.90;3.95;;;26.00;43.20;;;;;;5064906;28;45423;-65
2023/06/03 12:17:45;;;;;;;5.22;3.60;;;26.00;43.20;;;;;;5062521;28;45349;-66
2023/06/03 12:20:23;;;;;;;6.55;4.20;;;26.10;43.10;;;;;;5064561;28;46408;-65
2023/06/03 12:22:50;;;;;;;7.80;3.88;;;26.10;43.00;;;;;;5064642;28;45300;-65
2023/06/03 12:25:22;;;;;;;7.45;3.78;;;26.20;42.90;;;;;;5064429;28;45239;-66
2023/06/03 12:27:49;;;;;;;8.48;3.80;;;26.20;42.70;;;;;;5064814;28;45487;-65
2023/06/03 12:30:28;;;;;;;8.82;4.07;;;26.20;42.70;;;;;;5061745;28;45335;-65
2023/06/03 12:32:57;;;;;;;6.47;3.88;;;26.30;42.70;;;;;;5064416;28;45501;-65
2023/06/03 12:35:26;;;;;;;11.43;4.00;;;26.30;42.60;;;;;;5064803;28;45223;-65
2023/06/03 12:38:06;;;;;;;12.23;4.70;;;26.40;42.50;;;;;;5064536;28;45373;-66
2023/06/03 12:40:33;;;;;;;9.93;3.90;;;26.40;42.40;;;;;;5065581;28;46624;-65
2023/06/03 12:43:00;;;;;;;7.93;3.78;;;26.50;42.40;;;;;;5067836;28;45255;-66
2023/06/03 12:45:27;;;;;;;5.47;3.60;;;26.50;42.30;;;;;;5067724;28;45340;-65
2023/06/03 12:47:54;;;;;;;5.32;3.65;;;26.60;42.40;;;;;;5067970;28;45428;-66
2023/06/03 12:50:22;;;;;;;4.95;3.42;;;26.60;42.10;;;;;;5068121;28;45320;-65
2023/06/03 12:52:51;;;;;;;6.13;3.72;;;26.70;42.00;;;;;;5067568;28;45320;-66